createdAt,value
2023-01-20T00:02:02.371Z,7.10
2023-01-20T00:04:28.833Z,7.17
2023-01-20T00:06:56.030Z,5.60
2023-01-20T00:09:25.543Z,6.57
2023-01-20T00:11:52.441Z,7.50
2023-01-20T00:14:18.950Z,7.93
2023-01-20T00:16:46.221Z,6.87
2023-01-20T00:19:15.981Z,6.97
2023-01-20T00:21:43.405Z,6.50
2023-01-20T00:24:09.994Z,7.17
2023-01-20T00:26:37.669Z,6.13
2023-01-20T00:29:04.183Z,7.07
2023-01-20T00:31:31.782Z,6.70
2023-01-20T00:33:59.624Z,7.10
2023-01-20T00:36:27.872Z,5.50
2023-01-20T00:38:54.502Z,7.10
2023-01-20T00:41:21.112Z,5.90
2023-01-20T00:43:47.738Z,6.23
2023-01-20T00:46:14.708Z,6.30
2023-01-20T00:48:41.866Z,5.90
2023-01-20T00:51:10.360Z,6.13
2023-01-20T00:53:37.058Z,6.57
2023-01-20T00:56:03.947Z,6.80
2023-01-20T00:58:30.477Z,7.37
2023-01-20T01:00:58.769Z,7.30
2023-01-20T01:03:28.991Z,6.10
2023-01-20T01:06:05.662Z,7.20
2023-01-20T01:08:32.268Z,6.20
2023-01-20T01:10:59.865Z,6.60
2023-01-20T01:13:26.606Z,5.53
2023-01-20T01:15:53.391Z,8.90
2023-01-20T01:18:20.051Z,10.37
2023-01-20T01:20:46.650Z,7.93
2023-01-20T01:23:13.961Z,6.83
2023-01-20T01:25:40.545Z,6.20
2023-01-20T01:28:07.173Z,6.43
2023-01-20T01:30:34.197Z,5.60
2023-01-20T01:33:00.849Z,6.97
2023-01-20T01:35:27.352Z,5.73
2023-01-20T01:37:54.817Z,7.00
2023-01-20T01:40:21.337Z,7.23
2023-01-20T01:42:48.275Z,6.53
2023-01-20T01:45:20.975Z,7.10
2023-01-20T01:48:07.020Z,7.50
2023-01-20T01:50:38.376Z,7.03
2023-01-20T01:53:05.643Z,7.80
2023-01-20T01:55:35.705Z,7.60
2023-01-20T01:58:03.163Z,7.60
2023-01-20T02:00:30.099Z,10.70
2023-01-20T02:02:57.146Z,8.80
2023-01-20T02:05:24.524Z,10.03
2023-01-20T02:07:51.556Z,10.67
2023-01-20T02:10:18.561Z,8.93
2023-01-20T02:12:47.324Z,10.40
2023-01-20T02:15:14.483Z,8.50
2023-01-20T02:17:57.224Z,9.03
2023-01-20T02:20:42.509Z,9.00
2023-01-20T02:23:30.732Z,8.90
2023-01-20T02:26:17.565Z,8.63
2023-01-20T02:29:02.739Z,9.00
2023-01-20T02:31:48.039Z,8.50
2023-01-20T02:34:31.798Z,8.60
2023-01-20T02:37:01.563Z,9.70
2023-01-20T02:39:32.749Z,8.40
2023-01-20T02:42:06.053Z,9.10
2023-01-20T02:44:41.844Z,9.47
2023-01-20T02:47:15.285Z,8.50
2023-01-20T02:50:03.621Z,9.23
2023-01-20T02:52:35.092Z,9.73
2023-01-20T02:55:06.456Z,8.80
2023-01-20T02:57:37.489Z,9.67
2023-01-20T03:00:15.592Z,7.77
2023-01-20T03:02:43.363Z,9.33
2023-01-20T03:05:17.443Z,8.03
2023-01-20T03:07:44.989Z,8.07
2023-01-20T03:10:15.125Z,7.30
2023-01-20T03:12:48.636Z,7.80
2023-01-20T03:15:16.797Z,8.87
2023-01-20T03:17:43.506Z,7.90
2023-01-20T03:20:10.851Z,8.40
2023-01-20T03:22:37.393Z,9.43
2023-01-20T03:25:04.781Z,8.10
2023-01-20T03:27:31.703Z,8.83
2023-01-20T03:29:58.216Z,9.73
2023-01-20T03:32:26.876Z,8.93
2023-01-20T03:34:55.322Z,9.27
2023-01-20T03:37:22.710Z,8.40
2023-01-20T03:39:49.333Z,9.30
2023-01-20T03:42:26.522Z,10.40
2023-01-20T03:45:08.339Z,7.50
2023-01-20T03:47:53.575Z,8.40
2023-01-20T03:50:20.644Z,9.27
2023-01-20T03:52:52.896Z,8.80
2023-01-20T03:55:30.582Z,8.93
2023-01-20T03:58:06.590Z,8.20
2023-01-20T04:00:35.988Z,9.17
2023-01-20T04:03:06.333Z,7.87
2023-01-20T04:05:33.775Z,8.40
2023-01-20T04:08:02.818Z,9.30
2023-01-20T04:10:29.894Z,8.00
2023-01-20T04:12:57.024Z,7.70
2023-01-20T04:15:25.353Z,8.70
2023-01-20T04:17:51.940Z,7.83
2023-01-20T04:20:19.555Z,7.93
2023-01-20T04:22:51.217Z,7.83
2023-01-20T04:25:29.483Z,8.40
2023-01-20T04:27:56.150Z,7.47
2023-01-20T04:30:22.757Z,9.00
2023-01-20T04:32:49.546Z,9.37
2023-01-20T04:35:18.309Z,7.00
2023-01-20T04:37:45.147Z,7.60
2023-01-20T04:40:12.349Z,7.37
2023-01-20T04:42:39.158Z,8.40
2023-01-20T04:45:06.072Z,8.50
2023-01-20T04:47:33.906Z,7.90
2023-01-20T04:50:00.692Z,8.90
2023-01-20T04:52:27.284Z,10.23
2023-01-20T04:54:53.852Z,8.27
2023-01-20T04:57:20.475Z,8.30
2023-01-20T04:59:46.961Z,10.00
2023-01-20T05:02:13.608Z,9.20
2023-01-20T05:04:40.259Z,8.43
2023-01-20T05:07:06.906Z,8.20
2023-01-20T05:09:34.050Z,7.63
2023-01-20T05:12:00.841Z,7.90
2023-01-20T05:14:27.419Z,8.10
2023-01-20T05:16:54.216Z,7.50
2023-01-20T05:19:21.835Z,8.60
2023-01-20T05:21:50.947Z,8.50
2023-01-20T05:24:18.843Z,8.57
2023-01-20T05:26:47.692Z,8.50
2023-01-20T05:29:14.133Z,9.70
2023-01-20T05:31:43.841Z,8.90
2023-01-20T05:34:11.010Z,9.07
2023-01-20T05:36:39.121Z,9.70
2023-01-20T05:39:06.005Z,8.30
2023-01-20T05:41:34.079Z,9.20
2023-01-20T05:44:02.071Z,8.33
2023-01-20T05:46:28.585Z,9.40
2023-01-20T05:48:56.660Z,7.90
2023-01-20T05:51:23.383Z,8.93
2023-01-20T05:53:49.995Z,8.97
2023-01-20T05:56:16.843Z,7.97
2023-01-20T05:58:43.380Z,8.23
2023-01-20T06:01:12.511Z,8.20
2023-01-20T06:03:40.747Z,8.20
2023-01-20T06:06:09.776Z,9.80
2023-01-20T06:08:36.507Z,11.17
2023-01-20T06:11:07.944Z,9.77
2023-01-20T06:13:35.564Z,8.40
2023-01-20T06:16:05.095Z,9.67
2023-01-20T06:18:33.523Z,8.43
2023-01-20T06:21:00.216Z,8.67
2023-01-20T06:23:27.754Z,7.80
2023-01-20T06:26:10.294Z,8.83
2023-01-20T06:28:37.012Z,9.37
2023-01-20T06:31:16.805Z,8.87
2023-01-20T06:33:43.814Z,8.00
2023-01-20T06:36:17.854Z,7.43
2023-01-20T06:39:04.535Z,8.57
2023-01-20T06:41:31.970Z,8.47
2023-01-20T06:43:59.960Z,8.50
2023-01-20T06:46:26.560Z,9.97
2023-01-20T06:48:59.217Z,9.87
2023-01-20T06:51:44.284Z,9.40
2023-01-20T06:54:11.704Z,7.90
2023-01-20T06:56:39.371Z,9.50
2023-01-20T06:59:06.020Z,9.53
2023-01-20T07:01:35.359Z,8.80
2023-01-20T07:04:03.986Z,8.97
2023-01-20T07:06:35.193Z,9.70
2023-01-20T07:09:02.731Z,9.63
2023-01-20T07:11:31.577Z,11.07
2023-01-20T07:14:00.378Z,8.93
2023-01-20T07:16:28.632Z,9.90
2023-01-20T07:18:55.510Z,10.07
2023-01-20T07:21:26.251Z,10.63
2023-01-20T07:23:54.395Z,10.90
2023-01-20T07:26:24.256Z,11.57
2023-01-20T07:28:52.263Z,14.60
2023-01-20T07:31:22.842Z,12.80
2023-01-20T07:33:49.825Z,12.10
2023-01-20T07:36:17.281Z,11.40
2023-01-20T07:38:48.765Z,9.97
2023-01-20T07:41:18.375Z,9.37
2023-01-20T07:43:46.534Z,8.97
2023-01-20T07:46:14.791Z,9.77
2023-01-20T07:48:41.909Z,9.80
2023-01-20T07:51:11.129Z,8.93
2023-01-20T07:53:40.530Z,8.80
2023-01-20T07:56:13.115Z,8.67
2023-01-20T07:58:40.103Z,7.67
2023-01-20T08:01:15.325Z,7.07
2023-01-20T08:03:43.239Z,8.33
2023-01-20T08:06:11.751Z,9.63
2023-01-20T08:08:39.242Z,9.10
2023-01-20T08:11:07.788Z,8.67
2023-01-20T08:13:34.929Z,7.70
2023-01-20T08:16:03.958Z,9.40
2023-01-20T08:18:31.002Z,10.03
2023-01-20T08:20:57.565Z,11.73
2023-01-20T08:23:24.385Z,9.57
2023-01-20T08:25:58.819Z,9.00
2023-01-20T08:28:26.260Z,10.13
2023-01-20T08:30:54.611Z,9.50
2023-01-20T08:33:21.432Z,10.20
2023-01-20T08:35:48.782Z,10.67
2023-01-20T08:38:15.305Z,9.00
2023-01-20T08:40:45.880Z,9.73
2023-01-20T08:43:12.442Z,9.30
2023-01-20T08:45:40.081Z,9.57
2023-01-20T08:48:09.139Z,10.00
2023-01-20T08:50:36.980Z,9.27
2023-01-20T08:53:03.641Z,8.70
2023-01-20T08:55:31.620Z,11.40
2023-01-20T08:57:58.354Z,10.70
2023-01-20T09:00:25.046Z,10.17
2023-01-20T09:02:54.582Z,10.80
2023-01-20T09:05:22.401Z,10.43
2023-01-20T09:07:49.268Z,11.43
2023-01-20T09:10:15.877Z,10.30
2023-01-20T09:12:44.831Z,10.70
2023-01-20T09:15:12.927Z,10.50
2023-01-20T09:17:40.099Z,11.47
2023-01-20T09:20:07.344Z,11.07
2023-01-20T09:22:36.871Z,10.60
2023-01-20T09:25:04.470Z,9.33
2023-01-20T09:27:31.603Z,9.40
2023-01-20T09:30:03.541Z,9.27
2023-01-20T09:32:30.211Z,9.23
2023-01-20T09:34:58.201Z,9.80
2023-01-20T09:37:43.383Z,10.90
2023-01-20T09:40:41.288Z,11.83
2023-01-20T09:43:44.494Z,11.30
2023-01-20T09:46:38.110Z,8.10
2023-01-20T09:49:31.285Z,8.50
2023-01-20T09:52:43.560Z,8.83
2023-01-20T09:55:17.104Z,8.60
2023-01-20T09:57:49.090Z,7.90
2023-01-20T10:00:19.688Z,6.83
2023-01-20T10:02:53.439Z,6.67
2023-01-20T10:05:23.021Z,6.17
2023-01-20T10:08:00.229Z,7.30
2023-01-20T10:10:36.168Z,7.33
2023-01-20T10:13:14.528Z,7.30
2023-01-20T10:15:44.833Z,7.60
2023-01-20T10:18:26.309Z,8.13
2023-01-20T10:21:02.765Z,7.87
2023-01-20T10:23:56.797Z,12.73
2023-01-20T10:26:29.537Z,10.63
2023-01-20T10:29:01.768Z,18.80
2023-01-20T10:31:35.796Z,10.93
2023-01-20T10:34:17.395Z,10.20
2023-01-20T10:36:48.945Z,11.13
2023-01-20T10:39:54.648Z,8.80
2023-01-20T10:42:24.267Z,9.20
2023-01-20T10:44:52.492Z,9.33
2023-01-20T10:47:42.842Z,10.60
2023-01-20T10:50:41.777Z,10.50
2023-01-20T10:53:34.374Z,10.10
2023-01-20T10:56:15.728Z,13.60
2023-01-20T10:58:47.133Z,9.20
2023-01-20T11:01:21.527Z,10.90
2023-01-20T11:03:49.206Z,10.67
2023-01-20T11:06:28.891Z,11.00
2023-01-20T11:08:56.513Z,10.53
2023-01-20T11:11:25.998Z,11.40
2023-01-20T11:13:53.684Z,10.37
2023-01-20T11:16:26.550Z,10.20
2023-01-20T11:19:06.750Z,11.07
2023-01-20T11:21:37.935Z,11.20
2023-01-20T11:24:43.570Z,9.73
2023-01-20T11:27:17.898Z,9.50
2023-01-20T11:30:25.805Z,11.67
2023-01-20T11:33:21.367Z,10.37
2023-01-20T11:36:05.166Z,9.20
2023-01-20T11:38:45.184Z,10.40
2023-01-20T11:41:23.079Z,11.10
2023-01-20T11:43:55.787Z,10.23
2023-01-20T11:46:34.896Z,7.80
2023-01-20T11:49:15.406Z,9.67
2023-01-20T11:51:58.390Z,9.20
2023-01-20T11:54:30.454Z,8.50
2023-01-20T11:57:00.568Z,7.90
2023-01-20T11:59:36.823Z,8.87
2023-01-20T12:02:10.101Z,10.13
2023-01-20T12:05:04.375Z,8.10
2023-01-20T12:07:36.749Z,8.20
2023-01-20T12:10:13.950Z,7.83
2023-01-20T12:12:49.495Z,7.77
2023-01-20T12:15:21.784Z,8.00
2023-01-20T12:18:07.038Z,8.47
2023-01-20T12:20:54.885Z,7.33
2023-01-20T12:23:48.288Z,7.80
2023-01-20T12:26:20.358Z,7.80
2023-01-20T12:29:16.351Z,8.73
2023-01-20T12:31:44.315Z,8.40
2023-01-20T12:34:17.382Z,8.00
2023-01-20T12:36:55.372Z,7.17
2023-01-20T12:39:50.251Z,8.20
2023-01-20T12:42:27.081Z,7.50
2023-01-20T12:45:15.936Z,7.63
2023-01-20T12:48:03.817Z,8.43
2023-01-20T12:50:54.552Z,8.90
2023-01-20T12:53:28.914Z,8.50
2023-01-20T12:56:18.904Z,7.50
2023-01-20T12:59:17.373Z,8.03
2023-01-20T13:02:05.393Z,8.10
2023-01-20T13:04:50.253Z,7.60
2023-01-20T13:07:50.203Z,8.97
2023-01-20T13:10:46.353Z,7.83
2023-01-20T13:13:55.900Z,7.20
2023-01-20T13:16:42.874Z,6.83
2023-01-20T13:19:20.395Z,6.80
2023-01-20T13:22:03.065Z,7.63
2023-01-20T13:24:37.471Z,7.63
2023-01-20T13:27:05.698Z,8.53
2023-01-20T13:29:59.740Z,7.87
2023-01-20T13:32:29.550Z,9.20
2023-01-20T13:34:57.293Z,7.70
2023-01-20T13:37:29.520Z,8.30
2023-01-20T13:39:59.714Z,7.67
2023-01-20T13:42:40.098Z,7.80
2023-01-20T13:45:28.275Z,8.13
2023-01-20T13:48:02.861Z,7.63
2023-01-20T13:50:35.002Z,7.73
2023-01-20T13:53:12.802Z,7.73
2023-01-20T13:55:45.914Z,8.33
2023-01-20T13:58:32.754Z,7.20
2023-01-20T14:01:06.351Z,7.90
2023-01-20T14:03:38.097Z,7.43
2023-01-20T14:06:17.868Z,7.10
2023-01-20T14:08:50.966Z,8.77
2023-01-20T14:11:24.500Z,9.03
2023-01-20T14:13:58.307Z,8.33
2023-01-20T14:16:29.174Z,7.80
2023-01-20T14:19:00.931Z,9.20
2023-01-20T14:21:30.033Z,8.77
2023-01-20T14:24:00.827Z,8.93
2023-01-20T14:26:33.390Z,9.00
2023-01-20T14:29:03.442Z,33.67
2023-01-20T14:31:43.113Z,35.37
2023-01-20T14:34:24.822Z,25.43
2023-01-20T14:36:54.245Z,13.40
2023-01-20T14:39:27.748Z,18.43
2023-01-20T14:41:59.684Z,19.23
2023-01-20T14:44:37.497Z,12.67
2023-01-20T14:47:08.384Z,18.80
2023-01-20T14:49:39.622Z,16.80
2023-01-20T14:52:08.438Z,14.87
2023-01-20T14:54:45.138Z,15.60
2023-01-20T14:57:17.175Z,11.50
2023-01-20T14:59:46.315Z,13.33
2023-01-20T15:02:28.570Z,12.43
2023-01-20T15:04:57.352Z,14.90
2023-01-20T15:07:26.749Z,16.33
2023-01-20T15:10:03.763Z,11.87
2023-01-20T15:12:46.877Z,11.17
2023-01-20T15:15:26.435Z,11.07
2023-01-20T15:18:09.657Z,12.20
2023-01-20T15:20:39.394Z,11.60
2023-01-20T15:23:35.767Z,11.40
2023-01-20T15:26:24.366Z,11.10
2023-01-20T15:28:51.280Z,16.03
2023-01-20T15:31:22.568Z,11.17
2023-01-20T15:33:49.658Z,12.07
2023-01-20T15:36:23.106Z,10.27
2023-01-20T15:38:51.069Z,13.67
2023-01-20T15:41:18.410Z,10.90
2023-01-20T15:43:45.731Z,14.50
2023-01-20T15:46:15.063Z,9.30
2023-01-20T15:48:43.223Z,10.37
2023-01-20T15:51:24.898Z,10.17
2023-01-20T15:53:53.480Z,8.63
2023-01-20T15:56:30.678Z,11.60
2023-01-20T15:58:58.307Z,24.00
2023-01-20T16:01:30.263Z,12.80
2023-01-20T16:04:05.880Z,11.60
2023-01-20T16:06:34.677Z,10.53
2023-01-20T16:09:02.354Z,10.87
2023-01-20T16:11:29.617Z,9.07
2023-01-20T16:14:00.385Z,10.63
2023-01-20T16:16:31.124Z,8.37
2023-01-20T16:18:59.373Z,8.13
2023-01-20T16:21:27.169Z,9.07
2023-01-20T16:23:54.512Z,10.40
2023-01-20T16:26:23.664Z,8.33
2023-01-20T16:28:51.617Z,8.60
2023-01-20T16:31:19.282Z,9.07
2023-01-20T16:33:49.048Z,8.80
2023-01-20T16:36:20.037Z,9.93
2023-01-20T16:38:47.956Z,10.23
2023-01-20T16:41:20.944Z,9.30
2023-01-20T16:43:49.253Z,8.43
2023-01-20T16:46:24.830Z,8.80
2023-01-20T16:48:55.543Z,9.20
2023-01-20T16:51:26.056Z,9.00
2023-01-20T16:53:53.332Z,9.17
2023-01-20T16:56:23.842Z,8.70
2023-01-20T16:58:55.721Z,8.53
2023-01-20T17:01:26.999Z,7.83
2023-01-20T17:03:59.233Z,8.67
2023-01-20T17:06:33.936Z,10.17
2023-01-20T17:09:03.426Z,8.70
2023-01-20T17:11:35.561Z,8.67
2023-01-20T17:14:11.029Z,8.17
2023-01-20T17:16:38.671Z,8.73
2023-01-20T17:19:06.105Z,8.27
2023-01-20T17:21:35.308Z,7.87
2023-01-20T17:24:04.347Z,7.47
2023-01-20T17:26:31.107Z,6.13
2023-01-20T17:29:02.935Z,8.10
2023-01-20T17:31:32.096Z,8.23
2023-01-20T17:33:58.973Z,8.30
2023-01-20T17:36:26.728Z,7.27
2023-01-20T17:38:55.830Z,7.30
2023-01-20T17:41:22.884Z,7.27
2023-01-20T17:43:50.903Z,7.10
2023-01-20T17:46:21.075Z,7.00
2023-01-20T17:48:51.220Z,6.93
2023-01-20T17:51:26.655Z,7.20
2023-01-20T17:53:53.724Z,7.90
2023-01-20T17:56:22.047Z,6.80
2023-01-20T17:58:50.366Z,6.63
2023-01-20T18:01:18.309Z,7.50
2023-01-20T18:03:49.069Z,9.27
2023-01-20T18:06:18.528Z,11.10
2023-01-20T18:08:51.953Z,9.53
2023-01-20T18:11:20.605Z,11.63
2023-01-20T18:13:50.776Z,11.23
2023-01-20T18:16:19.525Z,7.97
2023-01-20T18:18:49.123Z,8.17
2023-01-20T18:21:23.071Z,8.57
2023-01-20T18:23:52.179Z,9.50
2023-01-20T18:26:24.808Z,9.00
2023-01-20T18:28:57.405Z,14.23
2023-01-20T18:31:26.748Z,11.50
2023-01-20T18:33:55.952Z,14.03
2023-01-20T18:36:37.720Z,13.13
2023-01-20T18:39:18.382Z,9.17
2023-01-20T18:41:46.014Z,8.90
2023-01-20T18:44:12.777Z,8.10
2023-01-20T18:46:40.965Z,7.43
2023-01-20T18:49:09.827Z,8.27
2023-01-20T18:51:37.345Z,8.60
2023-01-20T18:54:11.942Z,7.00
2023-01-20T18:56:39.194Z,6.70
2023-01-20T18:59:09.125Z,6.93
2023-01-20T19:01:39.992Z,6.80
2023-01-20T19:04:11.717Z,7.97
2023-01-20T19:06:40.927Z,7.00
2023-01-20T19:09:10.923Z,7.60
2023-01-20T19:11:40.186Z,7.77
2023-01-20T19:14:11.902Z,7.33
2023-01-20T19:16:42.933Z,8.33
2023-01-20T19:19:13.110Z,7.37
2023-01-20T19:21:41.888Z,8.20
2023-01-20T19:24:11.957Z,9.07
2023-01-20T19:26:39.282Z,9.20
2023-01-20T19:29:10.588Z,8.53
2023-01-20T19:31:39.245Z,7.60
2023-01-20T19:34:07.002Z,9.03
2023-01-20T19:36:35.127Z,8.47
2023-01-20T19:39:04.608Z,8.93
2023-01-20T19:41:36.676Z,10.70
2023-01-20T19:44:06.879Z,11.60
2023-01-20T19:46:37.653Z,11.80
2023-01-20T19:49:04.767Z,10.80
2023-01-20T19:51:31.629Z,7.97
2023-01-20T19:54:01.265Z,7.90
2023-01-20T19:56:32.908Z,9.10
2023-01-20T19:59:00.936Z,9.73
2023-01-20T20:01:34.573Z,8.57
2023-01-20T20:04:09.477Z,8.73
2023-01-20T20:06:46.269Z,7.53
2023-01-20T20:09:23.965Z,7.27
2023-01-20T20:11:52.818Z,8.63
2023-01-20T20:14:22.114Z,8.10
2023-01-20T20:16:55.312Z,8.70
2023-01-20T20:19:22.840Z,8.47
2023-01-20T20:21:50.075Z,11.57
2023-01-20T20:24:19.227Z,9.93
2023-01-20T20:26:50.191Z,9.23
2023-01-20T20:29:18.948Z,10.13
2023-01-20T20:31:49.728Z,8.80
2023-01-20T20:34:18.882Z,9.47
2023-01-20T20:36:48.206Z,10.10
2023-01-20T20:39:17.477Z,12.70
2023-01-20T20:41:45.127Z,10.93
2023-01-20T20:44:12.647Z,11.43
2023-01-20T20:46:40.866Z,11.97
2023-01-20T20:49:10.075Z,9.20
2023-01-20T20:51:37.512Z,10.50
2023-01-20T20:54:04.309Z,11.20
2023-01-20T20:56:32.582Z,9.10
2023-01-20T20:59:02.518Z,10.70
2023-01-20T21:01:35.224Z,8.70
2023-01-20T21:04:05.443Z,9.90
2023-01-20T21:06:32.668Z,10.27
2023-01-20T21:09:01.545Z,9.10
2023-01-20T21:11:28.848Z,8.97
2023-01-20T21:13:56.601Z,9.73
2023-01-20T21:16:25.075Z,11.33
2023-01-20T21:18:53.152Z,10.83
2023-01-20T21:21:21.537Z,9.30
2023-01-20T21:23:56.581Z,8.90
2023-01-20T21:26:28.898Z,8.03
2023-01-20T21:28:57.194Z,8.37
2023-01-20T21:31:27.925Z,9.13
2023-01-20T21:33:58.635Z,9.53
2023-01-20T21:36:26.749Z,13.03
2023-01-20T21:38:54.691Z,11.80
2023-01-20T21:41:21.630Z,13.57
2023-01-20T21:44:08.272Z,12.87
2023-01-20T21:46:39.339Z,13.07
2023-01-20T21:49:27.277Z,15.03
2023-01-20T21:52:13.827Z,14.30
2023-01-20T21:54:41.507Z,13.37
2023-01-20T21:57:08.320Z,12.50
2023-01-20T21:59:35.343Z,13.03
2023-01-20T22:02:02.501Z,12.93
2023-01-20T22:04:30.556Z,12.20
2023-01-20T22:06:58.504Z,11.90
2023-01-20T22:09:26.693Z,10.70
2023-01-20T22:11:53.311Z,10.13
2023-01-20T22:14:21.717Z,11.27
2023-01-20T22:16:48.590Z,14.00
2023-01-20T22:19:16.025Z,14.57
2023-01-20T22:21:42.748Z,13.13
2023-01-20T22:24:10.873Z,13.37
2023-01-20T22:26:39.337Z,12.80
2023-01-20T22:29:05.961Z,13.70
2023-01-20T22:31:37.127Z,14.27
2023-01-20T22:34:05.688Z,14.80
2023-01-20T22:36:33.614Z,14.07
2023-01-20T22:39:01.271Z,14.30
2023-01-20T22:41:29.679Z,15.70
2023-01-20T22:43:59.780Z,15.13
2023-01-20T22:46:28.183Z,15.13
2023-01-20T22:48:56.670Z,16.50
2023-01-20T22:51:26.727Z,15.30
2023-01-20T22:53:58.500Z,13.47
2023-01-20T22:56:30.446Z,14.00
2023-01-20T22:58:58.334Z,13.27
2023-01-20T23:01:29.095Z,14.20
2023-01-20T23:04:00.184Z,15.10
2023-01-20T23:06:28.775Z,14.70
2023-01-20T23:08:55.868Z,13.67
2023-01-20T23:11:23.403Z,14.30
2023-01-20T23:13:50.653Z,15.43
2023-01-20T23:16:19.896Z,13.83
2023-01-20T23:18:54.581Z,14.13
2023-01-20T23:21:21.336Z,14.30
2023-01-20T23:23:54.772Z,13.87
2023-01-20T23:26:24.239Z,15.93
2023-01-20T23:28:53.615Z,16.60
2023-01-20T23:31:21.006Z,17.53
2023-01-20T23:33:48.511Z,17.53
2023-01-20T23:36:20.021Z,15.53
2023-01-20T23:38:49.442Z,15.67
2023-01-20T23:41:17.396Z,15.00
2023-01-20T23:43:45.264Z,15.20
2023-01-20T23:46:11.914Z,15.80
2023-01-20T23:48:39.615Z,14.50
2023-01-20T23:51:06.932Z,16.47
2023-01-20T23:53:40.639Z,14.63
2023-01-20T23:56:17.242Z,14.60
2023-01-20T23:58:44.284Z,14.77
